Time;durP1;ratioP1;P1;durP2;ratioP2;P2;SDS_P1;SDS_P2;PMS_P1;PMS_P2;Temp;Humidity;BMP_temperature;BMP_pressure;BME280_temperature;BME280_humidity;BME280_pressure;Samples;Min_cycle;Max_cycle;Signal;HPM_P1;HPM_P2
2024/04/19 04:46:31;;;;;;;2.40;2.00;;;;;;;6.93;100.00;99059.60;113234;1247;23214;-51
2024/04/19 04:48:59;;;;;;;3.50;1.70;;;;;;;6.95;100.00;99065.64;113199;1234;23087;-44
2024/04/19 04:51:26;;;;;;;2.50;2.00;;;;;;;6.99;100.00;99071.89;110826;1247;22604;-42
2024/04/19 04:53:55;;;;;;;2.50;2.10;;;;;;;7.03;100.00;99072.91;111284;1235;22633;-44
2024/04/19 04:56:23;;;;;;;2.60;1.60;;;;;;;7.05;100.00;99076.70;110398;1235;22509;-44
2024/04/19 04:58:49;;;;;;;2.10;1.80;;;;;;;7.07;100.00;99074.08;110567;1234;22554;-43
2024/04/19 05:01:16;;;;;;;3.70;2.20;;;;;;;7.11;100.00;99073.20;112546;1244;23279;-53
2024/04/19 05:03:49;;;;;;;1.80;1.70;;;;;;;7.16;100.00;99078.73;113200;1237;23006;-53
2024/04/19 05:06:16;;;;;;;2.10;1.90;;;;;;;7.23;100.00;99083.72;112660;1247;24015;-53
2024/04/19 05:08:43;;;;;;;2.60;1.90;;;;;;;7.33;100.00;99088.85;111401;1246;22512;-46
2024/04/19 05:11:10;;;;;;;2.20;1.90;;;;;;;7.42;100.00;99101.98;113190;1247;22445;-45
2024/04/19 05:13:37;;;;;;;2.80;2.10;;;;;;;7.49;100.00;99101.08;112937;1246;22449;-53
2024/04/19 05:16:04;;;;;;;2.30;2.00;;;;;;;7.59;100.00;99105.70;112269;1247;23183;-45
2024/04/19 05:18:31;;;;;;;4.80;2.40;;;;;;;7.68;100.00;99108.58;112929;1236;22503;-44
2024/04/19 05:20:58;;;;;;;3.40;2.10;;;;;;;7.79;100.00;99116.67;112020;1236;22417;-53
2024/04/19 05:23:25;;;;;;;2.40;2.10;;;;;;;7.87;100.00;99111.56;112441;1247;24209;-43
2024/04/19 05:25:52;;;;;;;3.20;2.00;;;;;;;7.92;100.00;99114.81;112724;1237;22621;-43
2024/04/19 05:28:18;;;;;;;3.70;2.40;;;;;;;7.97;100.00;99123.28;112514;1241;22510;-43
2024/04/19 05:30:47;;;;;;;2.40;2.20;;;;;;;8.04;100.00;99118.73;113048;1240;22371;-43
2024/04/19 05:33:14;;;;;;;2.80;2.40;;;;;;;8.12;100.00;99125.42;113089;1243;22260;-43
2024/04/19 05:35:41;;;;;;;2.70;2.40;;;;;;;8.19;100.00;99125.36;113143;1247;22448;-47
2024/04/19 05:38:08;;;;;;;2.30;2.00;;;;;;;8.28;100.00;99133.10;113184;1247;22374;-52
2024/04/19 05:40:35;;;;;;;3.60;2.60;;;;;;;8.35;100.00;99140.17;113142;1247;22436;-42
2024/04/19 05:43:02;;;;;;;4.70;2.80;;;;;;;8.36;100.00;99145.22;113123;1237;22428;-43
2024/04/19 05:45:29;;;;;;;2.70;2.40;;;;;;;8.32;100.00;99150.78;113107;1247;22406;-43
2024/04/19 05:47:56;;;;;;;2.90;1.90;;;;;;;8.30;100.00;99150.98;113074;1237;23235;-42
2024/04/19 05:50:23;;;;;;;4.00;2.60;;;;;;;8.30;100.00;99158.62;112801;1236;22616;-42
2024/04/19 05:52:51;;;;;;;5.40;2.40;;;;;;;8.32;100.00;99161.20;113035;1247;23081;-51
2024/04/19 05:55:17;;;;;;;4.90;3.30;;;;;;;8.35;100.00;99172.15;112483;1247;22508;-42
2024/04/19 05:57:44;;;;;;;3.00;2.40;;;;;;;8.37;100.00;99176.48;112759;1247;23119;-51
2024/04/19 06:00:12;;;;;;;4.70;2.80;;;;;;;8.38;100.00;99187.41;111287;1247;22418;-51
2024/04/19 06:02:40;;;;;;;3.90;3.20;;;;;;;8.38;100.00;99198.71;113120;1247;23410;-44
2024/04/19 06:05:07;;;;;;;4.00;3.20;;;;;;;8.34;100.00;99207.58;112869;1247;22999;-53
2024/04/19 06:07:34;;;;;;;7.20;2.80;;;;;;;8.31;100.00;99208.48;113138;1247;22402;-51
2024/04/19 06:10:05;;;;;;;3.20;2.70;;;;;;;8.32;100.00;99205.17;113026;1247;22423;-44
2024/04/19 06:12:32;;;;;;;5.60;3.00;;;;;;;8.33;100.00;99211.92;112892;1247;22282;-51
2024/04/19 06:14:59;;;;;;;3.40;3.00;;;;;;;8.38;100.00;99213.66;113117;1247;22373;-51
2024/04/19 06:17:26;;;;;;;5.20;4.60;;;;;;;8.39;100.00;99220.07;112752;1247;22469;-43
2024/04/19 06:19:53;;;;;;;2.90;2.70;;;;;;;8.41;100.00;99223.36;112980;1247;22465;-52
2024/04/19 06:22:23;;;;;;;4.70;3.40;;;;;;;8.44;100.00;99222.64;112589;1247;22498;-43
2024/04/19 06:24:56;;;;;;;4.50;3.50;;;;;;;8.46;100.00;99228.88;112099;1247;22468;-42
2024/04/19 06:27:25;;;;;;;4.30;3.40;;;;;;;8.48;100.00;99224.88;113059;1247;22436;-41
2024/04/19 06:29:56;;;;;;;3.80;3.20;;;;;;;8.50;100.00;99229.70;112305;1241;23236;-42
2024/04/19 06:32:22;;;;;;;4.30;3.50;;;;;;;8.53;100.00;99225.88;112922;1247;22427;-43
2024/04/19 06:34:50;;;;;;;4.70;3.10;;;;;;;8.59;100.00;99245.81;113058;1247;23181;-42
2024/04/19 06:37:17;;;;;;;4.90;3.10;;;;;;;8.62;100.00;99240.22;112983;1246;23085;-43
2024/04/19 06:39:43;;;;;;;3.90;3.30;;;;;;;8.63;100.00;99245.94;113012;1247;22363;-43
2024/04/19 06:42:30;;;;;;;4.10;3.00;;;;;;;8.65;100.00;99249.77;112661;1247;22635;-52
2024/04/19 06:44:58;;;;;;;4.00;3.20;;;;;;;8.67;100.00;99251.30;112823;1247;22408;-53
2024/04/19 06:47:25;;;;;;;4.00;3.40;;;;;;;8.72;100.00;99261.68;113094;1247;23202;-52
2024/04/19 06:49:53;;;;;;;4.80;3.70;;;;;;;8.78;100.00;99256.75;113103;1247;22431;-45
2024/04/19 06:52:19;;;;;;;4.20;3.30;;;;;;;8.86;100.00;99253.91;112747;1247;23222;-51
2024/04/19 06:54:46;;;;;;;5.70;4.30;;;;;;;8.97;100.00;99261.45;113152;1247;22387;-52
2024/04/19 06:57:13;;;;;;;13.30;6.20;;;;;;;9.04;100.00;99262.77;112320;1247;22961;-51
2024/04/19 06:59:41;;;;;;;20.50;13.70;;;;;;;9.09;99.99;99274.71;113139;1247;22192;-51
2024/04/19 07:02:08;;;;;;;6.40;5.10;;;;;;;9.14;99.10;99288.23;112927;1246;22586;-52
2024/04/19 07:04:35;;;;;;;4.40;3.20;;;;;;;9.15;99.22;99287.70;113160;1247;22453;-52
2024/04/19 07:07:03;;;;;;;5.00;2.90;;;;;;;9.16;98.71;99294.65;112931;1247;22432;-52
2024/04/19 07:09:30;;;;;;;4.30;2.70;;;;;;;9.15;98.41;99297.95;112983;1247;22927;-41
2024/04/19 07:11:57;;;;;;;3.00;2.60;;;;;;;9.16;98.27;99304.92;112883;1247;23184;-43
2024/04/19 07:14:24;;;;;;;3.40;2.80;;;;;;;9.16;98.51;99308.59;112519;1247;22448;-45
2024/04/19 07:16:52;;;;;;;5.50;3.10;;;;;;;9.16;99.63;99311.88;112995;1247;22322;-51
2024/04/19 07:19:21;;;;;;;3.30;3.00;;;;;;;9.17;100.00;99308.39;112433;1247;22496;-51
2024/04/19 07:21:48;;;;;;;2.60;2.40;;;;;;;9.22;100.00;99316.70;113046;1247;22525;-43
2024/04/19 07:24:15;;;;;;;5.00;2.80;;;;;;;9.25;98.90;99324.66;112332;1247;22508;-42
2024/04/19 07:26:42;;;;;;;4.00;2.50;;;;;;;9.22;97.48;99330.96;113093;1247;22853;-43
2024/04/19 07:29:09;;;;;;;3.40;2.30;;;;;;;9.16;97.95;99335.70;113067;1247;22425;-43
2024/04/19 07:31:36;;;;;;;2.90;2.60;;;;;;;9.13;97.83;99343.91;113127;1247;22469;-44
2024/04/19 07:34:03;;;;;;;3.10;2.30;;;;;;;9.11;97.12;99351.60;113090;1247;23097;-41
2024/04/19 07:36:31;;;;;;;3.20;2.60;;;;;;;9.05;96.51;99350.95;112836;1247;22423;-43
2024/04/19 07:38:58;;;;;;;2.70;2.50;;;;;;;9.00;96.74;99360.03;112431;1247;22743;-44
2024/04/19 07:41:27;;;;;;;3.80;3.30;;;;;;;8.97;97.03;99355.17;111553;1247;1679089;-44
2024/04/19 07:43:56;;;;;;;5.10;3.10;;;;;;;9.00;97.98;99358.30;112560;1247;23242;-43
2024/04/19 07:46:28;;;;;;;2.50;2.30;;;;;;;9.04;97.03;99364.00;112737;1247;22430;-44
2024/04/19 07:48:55;;;;;;;3.50;2.40;;;;;;;9.08;96.56;99369.02;113152;1247;22610;-51
2024/04/19 07:51:22;;;;;;;2.70;2.40;;;;;;;9.08;95.50;99369.89;113147;1246;22443;-51
2024/04/19 07:53:49;;;;;;;2.90;2.60;;;;;;;9.09;94.96;99373.70;113149;1247;22571;-51
2024/04/19 07:56:17;;;;;;;4.30;2.60;;;;;;;9.13;95.52;99384.46;112452;1247;22419;-43
2024/04/19 07:58:44;;;;;;;3.00;2.30;;;;;;;9.12;94.34;99381.16;112778;1247;23263;-42
2024/04/19 08:01:12;;;;;;;3.00;2.50;;;;;;;9.09;95.23;99387.61;113104;1247;22804;-44
2024/04/19 08:03:40;;;;;;;3.30;2.80;;;;;;;9.07;95.85;99389.04;111867;1247;22568;-52
2024/04/19 08:06:07;;;;;;;5.10;2.40;;;;;;;9.05;94.88;99390.27;112338;1247;23284;-43
2024/04/19 08:08:35;;;;;;;5.20;2.70;;;;;;;9.04;94.91;99393.58;112589;1247;23170;-51
2024/04/19 08:11:02;;;;;;;2.60;2.20;;;;;;;9.06;94.45;99403.30;112543;1247;22408;-43
2024/04/19 08:13:43;;;;;;;2.20;1.90;;;;;;;9.13;93.86;99390.90;111820;1247;22337;-43
2024/04/19 08:16:17;;;;;;;3.70;2.80;;;;;;;9.20;93.43;99405.79;111933;1247;22205;-43
2024/04/19 08:18:58;;;;;;;2.10;1.90;;;;;;;9.23;93.07;99404.21;111411;1247;23041;-43
2024/04/19 08:21:28;;;;;;;;;;;;;;;9.20;92.16;99415.71;111503;1247;22524;-42
2024/04/19 08:23:57;;;;;;;2.60;2.40;;;;;;;9.15;92.14;99415.40;112022;1247;23112;-42
2024/04/19 08:26:24;;;;;;;5.90;2.40;;;;;;;9.11;93.60;99413.18;112883;1247;23122;-51
2024/04/19 08:28:52;;;;;;;2.20;2.00;;;;;;;9.10;94.16;99409.17;112468;1247;23420;-43
2024/04/19 08:31:30;;;;;;;4.50;2.30;;;;;;;9.11;94.53;99415.27;111690;1248;22469;-48
2024/04/19 08:34:02;;;;;;;4.90;2.50;;;;;;;9.11;95.06;99417.53;112216;1247;22983;-43
2024/04/19 08:36:31;;;;;;;7.40;2.40;;;;;;;9.13;96.07;99421.17;112376;1246;22436;-43
2024/04/19 08:38:58;;;;;;;4.60;2.80;;;;;;;9.14;96.57;99415.59;111080;1247;26228;-43
2024/04/19 08:41:28;;;;;;;4.30;3.30;;;;;;;9.14;96.11;99422.89;112862;1247;22958;-52
2024/04/19 08:44:00;;;;;;;7.10;3.40;;;;;;;9.12;96.40;99429.36;112943;1247;23090;-44
2024/04/19 08:46:33;;;;;;;4.70;3.00;;;;;;;9.09;95.56;99437.01;112761;1247;22670;-45
2024/04/19 08:49:02;;;;;;;3.80;3.20;;;;;;;9.08;96.00;99440.52;112366;1247;23382;-51
2024/04/19 08:51:30;;;;;;;3.70;3.40;;;;;;;9.06;96.54;99437.56;112514;1247;26065;-52
2024/04/19 08:54:24;;;;;;;7.70;3.50;;;;;;;9.10;96.73;99443.27;111743;1247;25248;-43
2024/04/19 08:56:53;;;;;;;4.70;4.20;;;;;;;9.14;96.89;99450.04;111756;1247;22522;-53
2024/04/19 08:59:25;;;;;;;4.40;4.00;;;;;;;9.20;97.12;99451.55;111921;1247;24012;-44
2024/04/19 09:01:57;;;;;;;5.10;4.20;;;;;;;9.26;96.86;99457.59;111827;1247;24882;-42
2024/04/19 09:04:27;;;;;;;4.70;4.30;;;;;;;9.30;97.16;99462.26;112152;1247;23317;-51
2024/04/19 09:06:56;;;;;;;8.90;5.90;;;;;;;9.29;95.51;99461.75;112553;1247;22974;-51
2024/04/19 09:09:23;;;;;;;5.40;4.80;;;;;;;9.24;95.49;99460.58;112808;1247;22988;-43
2024/04/19 09:12:51;;;;;;;5.70;4.50;;;;;;;9.23;96.20;99457.10;112397;1247;22508;-52
2024/04/19 09:16:23;;;;;;;5.00;4.20;;;;;;;9.30;94.97;99459.65;112080;1247;22957;-44
2024/04/19 09:19:20;;;;;;;4.40;3.30;;;;;;;9.37;95.00;99457.67;112859;1247;22448;-51
2024/04/19 09:21:47;;;;;;;4.30;3.70;;;;;;;9.45;94.92;99460.23;112916;1247;23031;-42
2024/04/19 09:24:15;;;;;;;4.10;3.70;;;;;;;9.48;93.77;99464.38;112565;1247;23276;-42
2024/04/19 09:26:44;;;;;;;4.10;3.30;;;;;;;9.45;93.76;99469.97;113167;1247;22459;-43
2024/04/19 09:29:11;;;;;;;3.60;3.00;;;;;;;9.42;93.93;99468.09;112396;1247;23691;-44
2024/04/19 09:31:42;;;;;;;3.60;3.30;;;;;;;9.40;94.75;99474.89;112872;1247;22290;-44
2024/04/19 09:34:09;;;;;;;4.50;3.40;;;;;;;9.36;94.84;99472.83;112959;1247;22346;-53
2024/04/19 09:36:44;;;;;;;5.40;4.20;;;;;;;9.31;95.68;99478.78;112587;1247;22822;-44
2024/04/19 09:39:11;;;;;;;9.60;5.50;;;;;;;9.27;95.40;99480.55;112440;1247;22514;-45
2024/04/19 09:42:06;;;;;;;7.00;5.00;;;;;;;9.26;96.30;99485.78;112299;1247;22414;-52
2024/04/19 09:45:02;;;;;;;6.90;5.60;;;;;;;9.32;97.71;99488.70;112229;1247;23303;-43
2024/04/19 09:48:01;;;;;;;6.20;4.80;;;;;;;9.42;98.07;99495.06;112814;1247;23178;-42
2024/04/19 09:50:38;;;;;;;5.50;5.00;;;;;;;9.49;96.19;99498.14;112328;1247;22538;-44
2024/04/19 09:53:10;;;;;;;8.60;5.70;;;;;;;9.53;95.76;99496.02;111853;1247;22979;-43
2024/04/19 09:56:29;;;;;;;6.70;5.80;;;;;;;9.56;95.27;99504.68;112342;1247;22353;-51
2024/04/19 09:59:56;;;;;;;7.80;7.00;;;;;;;9.57;94.49;99511.48;112841;1247;22819;-51
2024/04/19 10:03:10;;;;;;;9.00;6.20;;;;;;;9.62;94.07;99514.05;112871;1247;22522;-51
2024/04/19 10:11:08;;;;;;;6.30;5.70;;;;;;;9.77;92.09;99523.14;112509;1247;22441;-43
2024/04/19 10:13:54;;;;;;;7.10;6.40;;;;;;;9.72;92.44;99524.58;112878;1247;22432;-53
2024/04/19 10:16:26;;;;;;;8.90;6.10;;;;;;;9.70;93.01;99529.83;112653;1247;22510;-52
2024/04/19 10:19:14;;;;;;;;;;;;;;;9.68;94.11;99537.15;112153;1247;22477;-52
2024/04/19 10:21:54;;;;;;;6.60;5.90;;;;;;;9.67;94.49;99540.63;112094;1247;22501;-43
2024/04/19 10:24:22;;;;;;;7.10;6.40;;;;;;;9.65;92.74;99538.40;111769;1247;24495;-52
2024/04/19 10:26:51;;;;;;;11.90;6.60;;;;;;;9.62;91.84;99537.89;112985;1247;22474;-53
2024/04/19 10:29:20;;;;;;;7.30;6.60;;;;;;;9.69;92.39;99547.08;112187;1247;23743;-43
2024/04/19 10:31:48;;;;;;;9.90;6.80;;;;;;;9.74;92.09;99551.90;112276;1247;22413;-44
2024/04/19 10:34:16;;;;;;;9.40;6.30;;;;;;;9.78;91.85;99557.27;112966;1247;23197;-52
2024/04/19 10:36:45;;;;;;;6.50;5.70;;;;;;;9.78;91.68;99551.86;112977;1247;22886;-45
2024/04/19 10:39:12;;;;;;;6.50;5.80;;;;;;;9.78;92.65;99559.88;111825;1247;24156;-53
2024/04/19 10:41:52;;;;;;;7.50;6.60;;;;;;;9.78;92.44;99565.27;111961;1247;22602;-44
2024/04/19 10:44:19;;;;;;;7.90;6.40;;;;;;;9.77;92.07;99562.84;112792;1247;22417;-44
2024/04/19 10:46:48;;;;;;;6.80;5.80;;;;;;;9.79;91.87;99568.57;113122;1247;22365;-53
2024/04/19 10:49:16;;;;;;;9.10;6.10;;;;;;;9.82;92.00;99566.63;112930;1247;22397;-43
2024/04/19 10:51:43;;;;;;;8.30;5.80;;;;;;;9.91;91.70;99574.23;113055;1247;22377;-43
2024/04/19 10:54:11;;;;;;;7.00;6.30;;;;;;;9.99;90.74;99573.29;112797;1247;22420;-43
2024/04/19 10:56:38;;;;;;;6.80;5.90;;;;;;;10.02;90.06;99575.52;112857;1247;22819;-43
2024/04/19 10:59:08;;;;;;;6.50;5.20;;;;;;;10.01;90.45;99580.73;113038;1246;22407;-43
2024/04/19 11:01:38;;;;;;;7.90;6.40;;;;;;;10.02;90.29;99578.13;112913;1247;22225;-52
2024/04/19 11:04:05;;;;;;;5.90;4.80;;;;;;;10.07;89.94;99583.49;112939;1247;22508;-51
2024/04/19 11:06:32;;;;;;;6.00;5.40;;;;;;;10.16;90.22;99583.76;113013;1247;22365;-53
2024/04/19 11:08:59;;;;;;;6.30;5.70;;;;;;;10.34;89.50;99578.89;112124;1247;22412;-51
2024/04/19 11:11:37;;;;;;;6.20;5.60;;;;;;;10.57;90.48;99583.52;113094;1247;22370;-53
2024/04/19 11:14:49;;;;;;;7.20;6.20;;;;;;;10.75;87.39;99587.33;112824;1247;23359;-43
2024/04/19 11:26:32;;;;;;;12.00;7.20;;;;;;;10.64;86.10;99584.85;111314;1247;25219;-44
2024/04/19 11:34:18;;;;;;;8.20;7.00;;;;;;;10.82;86.65;99590.04;111754;1247;23201;-51
2024/04/19 11:37:03;;;;;;;9.50;7.20;;;;;;;11.02;85.98;99590.84;113218;1247;22377;-52
2024/04/19 11:39:31;;;;;;;10.00;7.30;;;;;;;11.13;84.21;99603.61;112226;1247;22607;-43
2024/04/19 11:42:22;;;;;;;6.70;6.00;;;;;;;11.15;83.48;99587.35;111541;1247;22596;-51
2024/04/19 11:45:07;;;;;;;6.90;6.20;;;;;;;11.27;85.03;99590.33;112738;1247;22485;-51
2024/04/19 11:47:40;;;;;;;5.70;5.10;;;;;;;11.34;81.58;99591.27;113196;1247;23360;-43
2024/04/19 11:50:08;;;;;;;9.30;4.40;;;;;;;11.39;81.94;99590.50;112964;1247;22312;-51
2024/04/19 11:53:57;;;;;;;6.70;5.00;;;;;;;11.42;81.02;99596.92;112796;1247;22511;-51
2024/04/19 11:58:06;;;;;;;9.30;5.00;;;;;;;11.40;82.13;99590.84;111423;1247;22465;-43
2024/04/19 12:04:10;;;;;;;5.30;4.80;;;;;;;11.59;78.28;99584.09;113176;1247;22372;-51
2024/04/19 12:06:43;;;;;;;6.00;4.80;;;;;;;11.57;78.09;99588.14;113135;1247;23606;-43
2024/04/19 12:09:10;;;;;;;5.80;4.90;;;;;;;11.54;79.23;99597.27;113132;1247;22418;-51
2024/04/19 12:11:37;;;;;;;6.30;4.80;;;;;;;11.46;79.15;99598.08;112833;1247;23170;-44
2024/04/19 12:14:05;;;;;;;6.60;4.80;;;;;;;11.34;80.02;99588.13;112981;1247;22946;-44
2024/04/19 12:16:53;;;;;;;5.60;4.80;;;;;;;11.25;81.68;99606.07;112997;1247;22968;-44
2024/04/19 12:19:34;;;;;;;5.50;4.80;;;;;;;11.12;82.37;99605.36;113044;1247;22421;-43
2024/04/19 12:22:02;;;;;;;6.90;5.90;;;;;;;11.01;83.78;99608.48;113025;1247;22904;-51
2024/04/19 12:24:34;;;;;;;7.30;6.40;;;;;;;10.94;84.02;99609.77;113086;1247;22566;-43
2024/04/19 12:27:04;;;;;;;9.90;6.10;;;;;;;10.90;81.20;99615.07;113049;1247;23392;-44
2024/04/19 12:29:31;;;;;;;7.00;5.80;;;;;;;10.82;79.48;99608.88;112758;1247;22429;-44
2024/04/19 12:31:59;;;;;;;10.30;6.40;;;;;;;10.79;80.47;99608.58;112691;1247;22422;-51
2024/04/19 12:34:26;;;;;;;5.60;5.00;;;;;;;10.80;80.96;99620.59;112838;1247;22414;-52
2024/04/19 12:36:55;;;;;;;6.90;6.20;;;;;;;10.80;81.63;99623.20;112977;1240;22378;-51
2024/04/19 12:39:22;;;;;;;5.50;4.60;;;;;;;10.78;80.93;99631.78;113033;1247;22418;-44
2024/04/19 12:41:49;;;;;;;6.50;4.50;;;;;;;10.71;78.39;99632.73;113063;1247;23424;-52
2024/04/19 12:44:16;;;;;;;7.30;4.90;;;;;;;10.64;78.84;99625.66;113100;1247;22374;-52
2024/04/19 12:46:42;;;;;;;5.80;4.80;;;;;;;10.62;79.90;99627.27;113143;1247;23094;-52
2024/04/19 12:49:13;;;;;;;10.40;5.60;;;;;;;10.59;80.83;99631.45;113146;1247;22396;-44
2024/04/19 12:51:39;;;;;;;8.40;6.10;;;;;;;10.51;80.95;99631.20;113175;1247;22844;-52
2024/04/19 12:54:06;;;;;;;6.60;5.20;;;;;;;10.41;81.98;99632.00;113178;1247;23037;-44
2024/04/19 12:56:34;;;;;;;5.60;5.00;;;;;;;10.33;83.26;99627.02;113169;1247;22970;-51
2024/04/19 12:59:01;;;;;;;6.00;5.40;;;;;;;10.27;84.77;99629.70;112805;1247;22456;-44
2024/04/19 13:01:27;;;;;;;9.30;6.90;;;;;;;10.23;85.44;99643.13;113184;1247;22465;-44
2024/04/19 13:03:55;;;;;;;7.60;6.40;;;;;;;10.16;85.22;99645.09;112399;1247;22516;-45
2024/04/19 13:06:22;;;;;;;12.20;6.20;;;;;;;10.10;85.42;99645.15;110261;1247;22647;-42
2024/04/19 13:08:49;;;;;;;7.20;5.60;;;;;;;10.06;85.40;99647.78;112821;1247;22436;-43
2024/04/19 13:11:16;;;;;;;6.30;5.70;;;;;;;10.04;85.55;99645.55;113012;1247;22432;-43
2024/04/19 13:13:52;;;;;;;8.40;6.20;;;;;;;10.03;85.75;99639.96;113105;1247;22506;-51
2024/04/19 13:16:20;;;;;;;7.70;5.50;;;;;;;10.08;85.99;99638.88;111662;1247;22510;-49
2024/04/19 13:18:47;;;;;;;5.80;5.20;;;;;;;10.19;85.17;99638.45;110821;1247;22530;-51
2024/04/19 13:21:14;;;;;;;6.90;4.60;;;;;;;10.41;84.33;99643.52;110591;1247;24204;-43
2024/04/19 13:23:41;;;;;;;5.50;4.60;;;;;;;10.57;81.89;99647.70;110325;1247;22567;-42
2024/04/19 13:26:08;;;;;;;7.10;4.70;;;;;;;10.62;81.14;99645.02;110527;1247;25213;-44
2024/04/19 13:28:38;;;;;;;5.50;4.20;;;;;;;10.68;79.90;99648.29;110480;1247;22519;-43
2024/04/19 13:31:06;;;;;;;5.20;4.30;;;;;;;10.77;80.54;99647.31;110288;1247;25322;-44
2024/04/19 13:33:34;;;;;;;5.70;4.10;;;;;;;10.90;81.91;99643.50;110341;1247;25323;-43
2024/04/19 13:36:01;;;;;;;4.80;4.30;;;;;;;11.08;81.84;99642.77;111410;1247;22396;-42
2024/04/19 13:38:28;;;;;;;5.70;4.90;;;;;;;11.19;81.98;99647.86;111409;1247;22509;-51
2024/04/19 13:40:54;;;;;;;6.20;4.30;;;;;;;11.21;81.87;99648.71;110716;1247;25314;-44
2024/04/19 13:43:21;;;;;;;6.50;3.90;;;;;;;11.29;81.48;99647.39;110990;1247;22518;-42
2024/04/19 13:45:49;;;;;;;4.60;3.90;;;;;;;11.49;80.10;99639.07;110854;1247;22507;-43
2024/04/19 13:48:16;;;;;;;4.10;3.70;;;;;;;11.79;80.43;99637.10;110878;1237;22521;-42
2024/04/19 13:50:43;;;;;;;4.20;3.70;;;;;;;12.08;77.75;99643.63;110101;1247;26488;-51
2024/04/19 13:53:11;;;;;;;6.10;3.50;;;;;;;12.32;76.29;99636.23;110260;1247;25403;-43
2024/04/19 13:55:38;;;;;;;4.50;3.50;;;;;;;12.46;74.25;99632.48;110242;1247;22516;-44
2024/04/19 13:58:06;;;;;;;4.60;3.20;;;;;;;12.45;74.31;99627.78;110793;1247;22572;-43
2024/04/19 14:00:33;;;;;;;3.90;3.00;;;;;;;12.40;74.90;99627.86;110286;1247;22512;-44
2024/04/19 14:03:00;;;;;;;6.80;3.50;;;;;;;12.29;74.50;99630.51;110618;1247;22608;-51
2024/04/19 14:05:27;;;;;;;3.80;3.20;;;;;;;12.04;73.35;99627.96;110175;1247;25404;-44
2024/04/19 14:07:54;;;;;;;5.30;3.20;;;;;;;11.80;72.74;99633.74;110541;1247;25270;-44
2024/04/19 14:10:21;;;;;;;5.50;3.40;;;;;;;11.60;71.39;99628.61;110464;1247;23245;-41
2024/04/19 14:12:58;;;;;;;4.20;2.80;;;;;;;11.46;72.78;99631.79;111769;1247;22432;-51
